Time;durP1;ratioP1;P1;durP2;ratioP2;P2;SDS_P1;SDS_P2;PMS_P1;PMS_P2;Temp;Humidity;BMP_temperature;BMP_pressure;BME280_temperature;BME280_humidity;BME280_pressure;Samples;Min_cycle;Max_cycle;Signal;HPM_P1;HPM_P2
2022/11/23 00:00:18;;;;;;;;;7.00;7.00;;;;;20.02;54.70;100037.27;105665;1279;19303;-66
2022/11/23 00:03:05;;;;;;;;;8.00;7.00;;;;;20.02;54.78;100037.32;105664;1294;21241;-67
2022/11/23 00:05:33;;;;;;;;;5.00;5.00;;;;;20.02;54.84;100040.20;105688;1297;21706;-66
2022/11/23 00:08:00;;;;;;;;;4.00;4.00;;;;;20.03;54.90;100041.39;105668;1295;19183;-65
2022/11/23 00:10:28;;;;;;;;;4.00;4.00;;;;;20.02;54.87;100040.45;105644;1296;20932;-66
2022/11/23 00:12:55;;;;;;;;;5.00;4.50;;;;;20.02;54.81;100046.56;105691;1272;22800;-66
2022/11/23 00:15:23;;;;;;;;;8.00;5.00;;;;;20.01;54.77;100046.05;105633;1289;19606;-66
2022/11/23 00:17:50;;;;;;;;;10.00;7.00;;;;;20.02;54.78;100047.98;105586;1271;148675;-66
2022/11/23 00:20:18;;;;;;;;;7.00;4.00;;;;;20.02;54.79;100050.25;105718;1279;21677;-67
2022/11/23 00:22:45;;;;;;;;;7.00;5.00;;;;;20.01;54.59;100050.71;105658;1297;20227;-66
2022/11/23 00:25:12;;;;;;;;;5.00;5.00;;;;;20.01;54.70;100055.27;105652;1274;20873;-66
2022/11/23 00:27:40;;;;;;;;;7.00;5.00;;;;;20.01;54.80;100056.52;105675;1288;20388;-64
2022/11/23 00:30:07;;;;;;;;;4.50;4.50;;;;;20.01;54.73;100061.37;105669;1288;22389;-64
2022/11/23 00:32:35;;;;;;;;;;;;;;;20.00;54.49;100064.30;105714;1297;20901;-65
2022/11/23 00:35:02;;;;;;;;;5.00;5.00;;;;;20.00;54.43;100068.32;105653;1288;20101;-67
2022/11/23 00:37:30;;;;;;;;;4.50;4.50;;;;;20.00;54.42;100070.54;105636;1295;19308;-66
2022/11/23 00:39:57;;;;;;;;;4.00;4.00;;;;;20.00;54.64;100067.77;105642;1295;20729;-66
2022/11/23 00:42:24;;;;;;;;;5.00;5.00;;;;;20.01;54.53;100068.82;105687;1297;23474;-67
2022/11/23 00:44:52;;;;;;;;;4.00;4.00;;;;;19.99;54.66;100070.23;105671;1287;19424;-68
2022/11/23 00:47:19;;;;;;;;;7.00;7.00;;;;;20.00;54.38;100069.70;105693;1297;19607;-66
2022/11/23 00:49:47;;;;;;;;;;;;;;;20.00;54.63;100074.05;105691;1288;21840;-66
2022/11/23 00:52:14;;;;;;;;;5.00;4.00;;;;;20.00;54.43;100069.07;105701;1280;23520;-66
2022/11/23 00:54:42;;;;;;;;;4.00;4.00;;;;;19.99;54.39;100066.67;105659;1294;19648;-66
2022/11/23 00:57:09;;;;;;;;;10.00;5.00;;;;;19.99;54.44;100066.13;105705;1295;21561;-66
2022/11/23 00:59:36;;;;;;;;;6.00;5.00;;;;;20.00;54.50;100071.11;105749;1288;19654;-65
2022/11/23 01:02:04;;;;;;;;;5.00;4.00;;;;;19.99;54.31;100074.25;105639;1279;19326;-66
2022/11/23 01:04:31;;;;;;;;;6.00;5.00;;;;;20.00;54.43;100078.86;105696;1287;21502;-66
2022/11/23 01:06:59;;;;;;;;;4.00;4.00;;;;;19.98;54.36;100071.00;105641;1272;20213;-66
2022/11/23 01:09:26;;;;;;;;;4.00;4.00;;;;;19.99;54.34;100066.33;105628;1295;23011;-66
2022/11/23 01:11:54;;;;;;;;;4.00;4.00;;;;;19.99;54.33;100066.00;105698;1297;21757;-66
2022/11/23 01:14:21;;;;;;;;;5.00;5.00;;;;;19.99;54.29;100063.58;105714;1288;19669;-64
2022/11/23 01:16:49;;;;;;;;;5.00;4.00;;;;;19.98;54.40;100058.58;105672;1288;19707;-65
2022/11/23 01:19:16;;;;;;;;;7.00;5.00;;;;;19.98;54.36;100058.66;105688;1273;21389;-65
2022/11/23 01:21:44;;;;;;;;;5.00;5.00;;;;;19.97;54.13;100055.80;105650;1279;20037;-66
2022/11/23 01:24:11;;;;;;;;;5.00;5.00;;;;;19.98;54.23;100057.20;105656;1279;19338;-66
2022/11/23 01:26:38;;;;;;;;;6.00;5.00;;;;;19.98;54.28;100056.51;105704;1297;20116;-66
2022/11/23 01:29:06;;;;;;;;;9.00;7.50;;;;;19.98;54.10;100058.45;105666;1289;22816;-65
2022/11/23 01:31:33;;;;;;;;;5.00;5.00;;;;;19.97;54.06;100058.52;105720;1272;22909;-66
2022/11/23 01:34:01;;;;;;;;;5.00;4.50;;;;;19.98;54.15;100054.70;105674;1272;21531;-66
2022/11/23 01:36:28;;;;;;;;;5.00;4.00;;;;;19.98;54.17;100055.02;105692;1297;22421;-65
2022/11/23 01:38:56;;;;;;;;;7.00;5.00;;;;;19.97;54.16;100054.00;105692;1295;19269;-66
2022/11/23 01:41:23;;;;;;;;;5.00;4.00;;;;;19.98;54.13;100058.67;105686;1274;21551;-66
2022/11/23 01:43:51;;;;;;;;;4.00;4.00;;;;;19.97;54.01;100058.80;105691;1279;22954;-66
2022/11/23 01:46:18;;;;;;;;;5.50;3.00;;;;;19.97;54.01;100062.33;105667;1274;22529;-66
2022/11/23 01:48:46;;;;;;;;;8.00;5.00;;;;;19.96;54.15;100061.56;105655;1289;23640;-66
2022/11/23 01:51:13;;;;;;;;;7.00;5.00;;;;;19.97;53.99;100063.52;105652;1272;19799;-66
2022/11/23 01:53:41;;;;;;;;;4.50;4.50;;;;;19.98;53.92;100063.93;105738;1295;19233;-65
2022/11/23 01:56:08;;;;;;;;;4.00;4.00;;;;;19.96;53.80;100065.36;105656;1294;21643;-66
2022/11/23 01:58:35;;;;;;;;;7.00;5.00;;;;;19.97;54.01;100063.33;105666;1279;23699;-66
2022/11/23 02:01:03;;;;;;;;;4.00;2.00;;;;;19.97;54.00;100066.02;105671;1293;19343;-65
2022/11/23 02:03:31;;;;;;;;;4.00;4.00;;;;;19.96;53.82;100069.79;105660;1295;23671;-65
2022/11/23 02:06:00;;;;;;;;;5.00;4.00;;;;;19.97;53.83;100067.46;105661;1297;19612;-65
2022/11/23 02:08:27;;;;;;;;;4.00;4.00;;;;;19.97;53.81;100064.95;105764;1296;23009;-67
2022/11/23 02:10:55;;;;;;;;;4.50;4.00;;;;;19.97;53.95;100063.16;105663;1279;20088;-65
2022/11/23 02:13:22;;;;;;;;;4.00;4.00;;;;;19.96;53.91;100065.40;105698;1295;19445;-67
2022/11/23 02:15:50;;;;;;;;;4.50;4.50;;;;;19.95;53.89;100065.35;105686;1275;20761;-66
2022/11/23 02:18:17;;;;;;;;;;;;;;;19.96;53.77;100065.95;105652;1271;22585;-66
2022/11/23 02:20:44;;;;;;;;;5.00;4.00;;;;;19.96;53.67;100066.15;105707;1295;19032;-66
2022/11/23 02:23:12;;;;;;;;;5.00;4.50;;;;;19.96;53.69;100061.77;105662;1281;21835;-67
2022/11/23 02:25:39;;;;;;;;;3.00;2.00;;;;;19.96;53.88;100062.39;105727;1279;20133;-66
2022/11/23 02:28:07;;;;;;;;;4.50;4.00;;;;;19.96;53.67;100060.91;105683;1271;19722;-63
2022/11/23 02:30:34;;;;;;;;;4.50;4.00;;;;;19.96;53.78;100060.75;105673;1289;20376;-66
2022/11/23 02:33:02;;;;;;;;;2.00;2.00;;;;;19.96;53.89;100057.88;105681;1279;20262;-66
2022/11/23 02:35:29;;;;;;;;;4.00;4.00;;;;;19.96;53.66;100059.29;105728;1290;24206;-66
2022/11/23 02:37:56;;;;;;;;;6.00;6.00;;;;;19.95;53.72;100060.25;105702;1297;19567;-66
2022/11/23 02:40:24;;;;;;;;;4.50;4.00;;;;;19.95;53.56;100065.18;105710;1297;20172;-66
2022/11/23 02:42:52;;;;;;;;;4.50;4.50;;;;;19.95;53.39;100066.85;105682;1290;19376;-63
2022/11/23 02:45:19;;;;;;;;;7.00;7.00;;;;;19.95;53.74;100073.30;105674;1280;20960;-66
2022/11/23 02:47:47;;;;;;;;;4.50;4.50;;;;;19.95;53.66;100071.33;105692;1296;21624;-66
2022/11/23 02:50:15;;;;;;;;;4.50;4.50;;;;;19.95;53.45;100068.98;105697;1297;23466;-66
2022/11/23 02:52:42;;;;;;;;;5.00;4.00;;;;;19.95;53.67;100067.36;105659;1287;20814;-67
2022/11/23 02:55:10;;;;;;;;;;;;;;;19.96;53.58;100068.17;105662;1297;20085;-66
2022/11/23 02:57:38;;;;;;;;;7.00;5.00;;;;;19.95;53.55;100068.48;105636;1279;19283;-65
2022/11/23 03:00:05;;;;;;;;;5.00;5.00;;;;;19.94;53.61;100069.61;105691;1297;19339;-65
2022/11/23 03:02:33;;;;;;;;;5.00;5.00;;;;;19.94;53.51;100070.23;105717;1291;21783;-66
2022/11/23 03:05:00;;;;;;;;;5.00;5.00;;;;;19.94;53.67;100074.55;105682;1279;19377;-66
2022/11/23 03:07:28;;;;;;;;;4.00;4.00;;;;;19.95;53.44;100077.02;105659;1281;20722;-66
2022/11/23 03:09:55;;;;;;;;;4.00;4.00;;;;;19.95;53.39;100078.48;105674;1279;19981;-66
2022/11/23 03:12:22;;;;;;;;;3.00;3.00;;;;;19.94;53.49;100080.70;105694;1296;23694;-66
2022/11/23 03:14:50;;;;;;;;;2.00;2.00;;;;;19.94;53.39;100081.48;105726;1294;19353;-66
2022/11/23 03:17:17;;;;;;;;;4.00;4.00;;;;;19.94;53.46;100080.57;105644;1292;20283;-66
2022/11/23 03:19:45;;;;;;;;;4.00;4.00;;;;;19.94;53.34;100080.33;105718;1295;19281;-66
2022/11/23 03:22:12;;;;;;;;;5.00;4.50;;;;;19.94;53.17;100082.38;105724;1271;20759;-65
2022/11/23 03:24:40;;;;;;;;;4.00;3.00;;;;;19.94;53.32;100082.50;105691;1279;20169;-64
2022/11/23 03:27:07;;;;;;;;;5.00;4.67;;;;;19.94;53.06;100081.45;105704;1297;19058;-66
2022/11/23 03:29:35;;;;;;;;;4.00;4.00;;;;;19.94;53.36;100087.06;105724;1297;21689;-65
2022/11/23 03:32:02;;;;;;;;;4.00;4.00;;;;;19.93;53.32;100085.88;105678;1288;21712;-65
2022/11/23 03:34:29;;;;;;;;;4.00;4.00;;;;;19.94;53.21;100084.04;105696;1279;19221;-65
2022/11/23 03:36:57;;;;;;;;;5.00;5.00;;;;;19.92;53.13;100080.02;105722;1281;19554;-67
2022/11/23 03:39:24;;;;;;;;;4.00;4.00;;;;;19.93;53.28;100074.91;105655;1293;20086;-66
2022/11/23 03:41:52;;;;;;;;;7.50;4.50;;;;;19.93;53.36;100075.62;105673;1297;23685;-67
2022/11/23 03:44:19;;;;;;;;;2.00;2.00;;;;;19.93;53.18;100067.46;105703;1297;19368;-66
2022/11/23 03:46:46;;;;;;;;;4.50;4.50;;;;;19.93;53.30;100063.98;105657;1295;23056;-65
2022/11/23 03:49:14;;;;;;;;;4.00;4.00;;;;;19.92;53.21;100060.24;105678;1279;19553;-66
2022/11/23 03:51:41;;;;;;;;;4.00;2.00;;;;;19.91;53.11;100054.62;105705;1280;19756;-66
2022/11/23 03:54:09;;;;;;;;;4.00;2.00;;;;;19.92;53.03;100055.05;105663;1274;21516;-66
2022/11/23 03:56:36;;;;;;;;;2.00;2.00;;;;;19.93;53.22;100051.52;105698;1297;19223;-66
2022/11/23 03:59:04;;;;;;;;;5.00;5.00;;;;;19.92;53.16;100047.98;105639;1279;19262;-66
2022/11/23 04:01:31;;;;;;;;;;;;;;;19.92;53.13;100050.16;105666;1297;20070;-66
2022/11/23 04:03:58;;;;;;;;;4.50;4.50;;;;;19.93;52.86;100053.70;105685;1289;19287;-67
2022/11/23 04:06:26;;;;;;;;;5.00;4.00;;;;;19.92;53.10;100051.93;105677;1279;20676;-66
2022/11/23 04:08:53;;;;;;;;;6.00;4.50;;;;;19.92;53.20;100047.30;105678;1297;20078;-67
2022/11/23 04:11:21;;;;;;;;;4.50;4.50;;;;;19.92;52.97;100047.91;105687;1297;20906;-65
2022/11/23 04:13:48;;;;;;;;;3.00;2.00;;;;;19.91;53.14;100046.59;105663;1281;19376;-66
2022/11/23 04:16:15;;;;;;;;;3.33;3.33;;;;;19.92;53.00;100045.98;105662;1279;22840;-66
2022/11/23 04:18:43;;;;;;;;;4.00;4.00;;;;;19.91;53.01;100043.70;105628;1298;19543;-66
2022/11/23 04:21:10;;;;;;;;;2.00;2.00;;;;;19.92;53.14;100047.47;105610;1296;20713;-65
2022/11/23 04:23:38;;;;;;;;;4.00;4.00;;;;;19.92;52.99;100043.58;105687;1290;20020;-65
2022/11/23 04:26:05;;;;;;;;;2.00;2.00;;;;;19.92;53.02;100041.60;105688;1298;20178;-66
2022/11/23 04:28:33;;;;;;;;;7.00;5.00;;;;;19.91;52.90;100039.80;105652;1281;19624;-63
2022/11/23 04:31:00;;;;;;;;;4.50;4.50;;;;;19.91;52.99;100038.30;105686;1281;20225;-65
2022/11/23 04:33:27;;;;;;;;;4.00;4.00;;;;;19.92;53.00;100046.32;105681;1279;23088;-65
2022/11/23 04:35:55;;;;;;;;;2.00;2.00;;;;;19.92;52.85;100044.86;105661;1297;19282;-66
2022/11/23 04:38:22;;;;;;;;;7.00;5.00;;;;;19.92;52.82;100042.01;105686;1303;20083;-65
2022/11/23 04:40:50;;;;;;;;;5.00;5.00;;;;;19.91;52.96;100037.39;105708;1288;19185;-65
2022/11/23 04:43:17;;;;;;;;;4.00;3.00;;;;;19.91;52.79;100033.23;105634;1289;19515;-65
2022/11/23 04:45:45;;;;;;;;;5.00;4.00;;;;;19.90;53.08;100037.29;105663;1274;20087;-65
2022/11/23 04:48:12;;;;;;;;;4.00;3.00;;;;;19.91;52.80;100035.45;105685;1296;21070;-65
2022/11/23 04:50:40;;;;;;;;;5.00;4.00;;;;;19.90;52.89;100037.11;105713;1297;19165;-65
2022/11/23 04:53:08;;;;;;;;;4.00;4.00;;;;;19.91;52.73;100037.41;105664;1295;23486;-65
2022/11/23 04:55:35;;;;;;;;;4.00;4.00;;;;;19.91;52.99;100044.24;105682;1297;19976;-65
2022/11/23 04:58:03;;;;;;;;;;;;;;;19.91;52.63;100046.33;105688;1295;19411;-66
2022/11/23 05:00:30;;;;;;;;;4.00;4.00;;;;;19.90;52.95;100049.64;105641;1297;21471;-65
2022/11/23 05:02:58;;;;;;;;;4.50;4.50;;;;;19.90;52.71;100049.50;105680;1279;19044;-66
2022/11/23 05:05:25;;;;;;;;;2.00;2.00;;;;;19.90;52.76;100044.64;105696;1297;20872;-65
2022/11/23 05:07:53;;;;;;;;;4.00;2.00;;;;;19.90;52.65;100042.27;105665;1279;20264;-66
2022/11/23 05:10:20;;;;;;;;;4.00;4.00;;;;;19.90;52.81;100040.97;105662;1287;22994;-66
2022/11/23 05:12:47;;;;;;;;;2.00;2.00;;;;;19.90;52.64;100047.08;105665;1297;19251;-65
2022/11/23 05:15:15;;;;;;;;;3.00;3.00;;;;;19.90;52.58;100050.92;105636;1295;21726;-65
2022/11/23 05:17:42;;;;;;;;;5.00;4.00;;;;;19.89;52.59;100052.67;105704;1297;19822;-66
2022/11/23 05:20:10;;;;;;;;;4.00;2.00;;;;;19.89;52.64;100053.23;105685;1272;19339;-65
2022/11/23 05:22:37;;;;;;;;;2.00;2.00;;;;;19.89;52.78;100057.54;105672;1274;20163;-65
2022/11/23 05:25:05;;;;;;;;;7.50;4.50;;;;;19.90;52.60;100053.80;105699;1297;20899;-67
2022/11/23 05:27:32;;;;;;;;;5.50;4.50;;;;;19.90;52.67;100049.37;105688;1297;20915;-66
2022/11/23 05:30:00;;;;;;;;;4.00;4.00;;;;;19.89;52.72;100053.56;105667;1271;20082;-66
2022/11/23 05:32:27;;;;;;;;;4.00;4.00;;;;;19.90;52.63;100056.27;105675;1284;23441;-65
2022/11/23 05:34:55;;;;;;;;;2.00;2.00;;;;;19.89;52.62;100054.55;105661;1300;19556;-66
2022/11/23 05:37:22;;;;;;;;;2.00;2.00;;;;;19.89;52.66;100059.91;105633;1278;22174;-66
2022/11/23 05:39:50;;;;;;;;;4.00;4.00;;;;;19.89;52.76;100063.80;105690;1280;19344;-65
2022/11/23 05:42:17;;;;;;;;;2.00;2.00;;;;;19.89;52.71;100064.48;105682;1295;19260;-67
2022/11/23 05:44:44;;;;;;;;;4.00;4.00;;;;;19.89;52.48;100061.83;105697;1297;20218;-67
2022/11/23 05:47:12;;;;;;;;;4.50;4.00;;;;;19.89;52.80;100067.54;105641;1288;19350;-66
2022/11/23 05:49:39;;;;;;;;;2.00;2.00;;;;;19.90;52.53;100067.75;105682;1280;23535;-67
2022/11/23 05:52:07;;;;;;;;;4.00;4.00;;;;;19.89;52.47;100068.23;105677;1295;21919;-66
2022/11/23 05:54:34;;;;;;;;;5.00;4.00;;;;;19.89;52.69;100069.95;105648;1296;19683;-66
2022/11/23 05:57:02;;;;;;;;;4.00;4.00;;;;;19.89;52.49;100071.88;105685;1297;19448;-65
2022/11/23 05:59:29;;;;;;;;;2.00;2.00;;;;;19.88;52.46;100068.27;105699;1297;20107;-65
2022/11/23 06:01:57;;;;;;;;;5.00;4.00;;;;;19.89;52.65;100077.12;105682;1281;23610;-65
2022/11/23 06:04:24;;;;;;;;;4.00;4.00;;;;;19.88;52.50;100075.27;105679;1279;19557;-65
2022/11/23 06:06:53;;;;;;;;;4.00;2.00;;;;;19.88;52.45;100071.11;105655;1297;23472;-65
2022/11/23 06:09:20;;;;;;;;;3.00;3.00;;;;;19.88;52.52;100068.44;105736;1295;19366;-65
2022/11/23 06:11:48;;;;;;;;;4.00;4.00;;;;;19.87;52.42;100058.38;105687;1293;19723;-65
2022/11/23 06:14:15;;;;;;;;;4.00;4.00;;;;;19.87;52.63;100058.92;105644;1297;20318;-65
2022/11/23 06:16:43;;;;;;;;;3.00;3.00;;;;;19.87;52.66;100064.16;105673;1274;19322;-64
2022/11/23 06:19:10;;;;;;;;;5.00;5.00;;;;;19.87;52.36;100065.04;105647;1289;21291;-65
2022/11/23 06:21:38;;;;;;;;;4.00;4.00;;;;;19.88;52.36;100066.77;105614;1282;23561;-68
2022/11/23 06:24:05;;;;;;;;;5.00;4.00;;;;;19.88;52.42;100068.06;105635;1279;19201;-65
2022/11/23 06:26:33;;;;;;;;;4.00;4.00;;;;;19.90;52.37;100074.45;105648;1289;20753;-65
2022/11/23 06:29:00;;;;;;;;;2.00;2.00;;;;;19.93;52.29;100078.51;105686;1279;20055;-65
2022/11/23 06:31:28;;;;;;;;;7.00;7.00;;;;;19.95;52.36;100079.16;105655;1288;20556;-63
2022/11/23 06:33:55;;;;;;;;;94.00;71.00;;;;;19.98;52.48;100086.95;105661;1295;19331;-65
2022/11/23 06:36:23;;;;;;;;;94.00;71.00;;;;;19.98;53.20;100089.63;105644;1279;24288;-65
2022/11/23 06:38:50;;;;;;;;;79.00;64.00;;;;;19.98;53.75;100090.90;105713;1297;20053;-65
2022/11/23 06:41:18;;;;;;;;;63.00;50.00;;;;;19.99;53.72;100094.20;105658;1279;19508;-67
2022/11/23 06:43:45;;;;;;;;;61.50;47.00;;;;;19.99;53.62;100098.23;105641;1296;20411;-66
2022/11/23 06:46:13;;;;;;;;;50.00;45.00;;;;;19.98;53.62;100096.14;105619;1279;19320;-67
2022/11/23 06:48:40;;;;;;;;;36.00;33.00;;;;;19.98;53.52;100096.48;105642;1287;19526;-66
2022/11/23 06:51:08;;;;;;;;;;;;;;;19.97;53.52;100089.23;105668;1297;20423;-67
2022/11/23 06:53:35;;;;;;;;;31.00;24.50;;;;;19.96;53.61;100093.11;105675;1294;19808;-66
2022/11/23 06:56:03;;;;;;;;;;;;;;;19.98;53.47;100100.17;105640;1279;19373;-65
2022/11/23 06:58:30;;;;;;;;;22.50;20.00;;;;;19.98;53.43;100093.67;105641;1279;21839;-64
2022/11/23 07:00:58;;;;;;;;;20.00;17.50;;;;;19.97;53.48;100096.34;105665;1279;20701;-65
2022/11/23 07:03:25;;;;;;;;;16.00;13.50;;;;;19.99;53.55;100097.30;105689;1282;19442;-66
2022/11/23 07:05:54;;;;;;;;;14.00;14.00;;;;;20.02;53.68;100100.46;105607;1288;21487;-66
2022/11/23 07:08:21;;;;;;;;;15.00;14.00;;;;;20.00;53.67;100102.84;105557;1302;23109;-66
2022/11/23 07:10:48;;;;;;;;;11.00;11.00;;;;;19.99;53.78;100102.61;105581;1296;20783;-66
2022/11/23 07:13:16;;;;;;;;;10.00;10.00;;;;;19.98;53.71;100105.61;105630;1289;20298;-64
2022/11/23 07:15:43;;;;;;;;;11.00;11.00;;;;;19.99;53.71;100105.50;105606;1274;21633;-66
2022/11/23 07:18:11;;;;;;;;;7.00;7.00;;;;;20.01;53.71;100110.38;105594;1271;19197;-66
2022/11/23 07:20:38;;;;;;;;;11.00;10.00;;;;;19.99;53.64;100108.19;105621;1301;21719;-66
2022/11/23 07:23:06;;;;;;;;;9.00;7.50;;;;;20.02;53.47;100111.52;105600;1296;19235;-67
2022/11/23 07:25:33;;;;;;;;;10.00;7.00;;;;;20.04;53.74;100111.88;105625;1301;19410;-66
2022/11/23 07:28:01;;;;;;;;;8.00;8.00;;;;;20.04;53.66;100122.92;105648;1274;24258;-67
2022/11/23 07:30:28;;;;;;;;;10.00;8.00;;;;;20.04;53.52;100126.55;105573;1280;19233;-66
2022/11/23 07:32:56;;;;;;;;;10.00;7.50;;;;;20.05;53.51;100132.06;105735;1293;19356;-65
2022/11/23 07:35:23;;;;;;;;;10.00;8.00;;;;;20.04;53.41;100131.17;105628;1297;20248;-66
2022/11/23 07:37:50;;;;;;;;;9.00;7.50;;;;;20.06;53.50;100132.77;105687;1271;19214;-66
2022/11/23 07:40:18;;;;;;;;;9.50;7.00;;;;;20.07;53.50;100133.64;105619;1279;19555;-65
2022/11/23 07:42:46;;;;;;;;;10.00;10.00;;;;;20.07;53.51;100133.10;105723;1282;20095;-64
2022/11/23 07:45:13;;;;;;;;;10.00;8.00;;;;;20.05;53.33;100137.05;105608;1295;19674;-63
2022/11/23 07:47:41;;;;;;;;;;;;;;;20.04;53.19;100143.42;105649;1281;22899;-65
2022/11/23 07:50:08;;;;;;;;;8.00;8.00;;;;;20.02;53.48;100148.85;105650;1289;20080;-65
2022/11/23 07:52:36;;;;;;;;;4.00;4.00;;;;;20.01;53.59;100150.26;105631;1281;19251;-65
2022/11/23 07:55:03;;;;;;;;;7.00;7.00;;;;;20.00;53.63;100153.98;105659;1280;19688;-66
2022/11/23 07:57:31;;;;;;;;;10.50;7.00;;;;;19.99;53.66;100148.95;105667;1297;23027;-66
2022/11/23 07:59:58;;;;;;;;;5.00;5.00;;;;;20.00;53.24;100150.30;105640;1279;19219;-66
2022/11/23 08:02:26;;;;;;;;;4.00;4.00;;;;;20.01;53.48;100150.22;105623;1287;20826;-66
2022/11/23 08:04:54;;;;;;;;;7.50;6.00;;;;;20.02;53.22;100152.45;105586;1295;20112;-66
2022/11/23 08:07:21;;;;;;;;;11.50;9.50;;;;;20.02;53.26;100148.72;105570;1297;19190;-67
2022/11/23 08:09:49;;;;;;;;;7.00;7.00;;;;;20.02;53.48;100153.23;105597;1272;19438;-66
2022/11/23 08:12:17;;;;;;;;;5.00;5.00;;;;;20.03;53.56;100159.03;105662;1274;20471;-65
2022/11/23 08:14:44;;;;;;;;;6.00;6.00;;;;;20.04;53.51;100158.39;105716;1297;19586;-64
2022/11/23 08:17:11;;;;;;;;;5.00;5.00;;;;;20.07;53.59;100158.42;105629;1293;19507;-66
2022/11/23 08:19:39;;;;;;;;;5.00;5.00;;;;;20.07;53.68;100158.77;105681;1272;21617;-66
2022/11/23 08:22:06;;;;;;;;;;;;;;;20.08;53.68;100157.18;105650;1272;19626;-66
2022/11/23 08:24:34;;;;;;;;;5.00;5.00;;;;;20.09;53.57;100155.10;105565;1294;20450;-66
2022/11/23 08:27:01;;;;;;;;;8.00;7.00;;;;;20.10;53.56;100154.41;105617;1297;21552;-67
2022/11/23 08:29:29;;;;;;;;;4.00;4.00;;;;;20.10;53.67;100154.28;105651;1279;19078;-66
2022/11/23 08:31:56;;;;;;;;;4.00;4.00;;;;;20.10;53.66;100155.33;105612;1288;20412;-67
2022/11/23 08:34:24;;;;;;;;;8.00;8.00;;;;;20.11;53.56;100155.98;105591;1279;22999;-70
2022/11/23 08:36:51;;;;;;;;;7.00;7.00;;;;;20.12;53.64;100163.48;105484;1279;19305;-68
2022/11/23 08:39:19;;;;;;;;;;;;;;;20.11;53.99;100166.65;105562;1281;22222;-66
2022/11/23 08:41:46;;;;;;;;;5.00;5.00;;;;;20.12;54.40;100169.05;105647;1279;21939;-67
2022/11/23 08:44:14;;;;;;;;;7.00;5.00;;;;;20.11;54.76;100170.83;105499;1272;19767;-68
2022/11/23 08:46:41;;;;;;;;;4.00;4.00;;;;;20.10;54.52;100167.80;105633;1296;20516;-68
2022/11/23 08:49:09;;;;;;;;;3.00;3.00;;;;;20.12;54.67;100165.79;105491;1295;20197;-68
2022/11/23 08:51:36;;;;;;;;;4.50;4.50;;;;;20.11;54.68;100166.61;105674;1294;19654;-68
2022/11/23 08:54:04;;;;;;;;;5.00;5.00;;;;;20.10;54.34;100168.56;105659;1281;19342;-67
2022/11/23 08:56:31;;;;;;;;;7.00;5.00;;;;;20.08;54.37;100168.02;105574;1300;20393;-67
2022/11/23 08:58:59;;;;;;;;;5.00;5.00;;;;;20.07;54.75;100167.91;105557;1272;19221;-66
2022/11/23 09:01:26;;;;;;;;;5.00;5.00;;;;;20.07;54.67;100166.29;105468;1271;21020;-66
2022/11/23 09:03:54;;;;;;;;;;;;;;;20.06;54.58;100167.38;105579;1279;24770;-65
2022/11/23 09:06:27;;;;;;;;;4.00;2.00;;;;;20.05;54.61;100167.05;105603;1292;19298;-68
2022/11/23 09:08:55;;;;;;;;;4.00;4.00;;;;;20.05;54.44;100164.43;105695;1272;19327;-70
2022/11/23 09:11:25;;;;;;;;;4.50;4.50;;;;;20.03;54.38;100156.18;105625;1279;20249;-69
2022/11/23 09:13:52;;;;;;;;;7.00;5.00;;;;;20.03;54.41;100158.91;105624;1279;19337;-67
2022/11/23 09:16:20;;;;;;;;;3.00;3.00;;;;;20.02;54.27;100164.04;105662;1283;21598;-67
2022/11/23 09:18:49;;;;;;;;;7.00;5.00;;;;;20.01;54.12;100168.14;105617;1288;21700;-66
2022/11/23 09:21:16;;;;;;;;;;;;;;;20.00;53.92;100165.44;105683;1279;19964;-66
2022/11/23 09:23:44;;;;;;;;;5.00;4.00;;;;;20.00;53.98;100163.36;105656;1291;19161;-67
2022/11/23 09:26:11;;;;;;;;;4.00;4.00;;;;;19.99;54.01;100159.15;105599;1279;21663;-66
2022/11/23 09:28:39;;;;;;;;;3.00;3.00;;;;;20.01;53.68;100156.78;105598;1271;22960;-67
2022/11/23 09:31:06;;;;;;;;;5.00;4.00;;;;;20.00;53.81;100152.72;105619;1279;23089;-67
2022/11/23 09:33:33;;;;;;;;;5.00;4.00;;;;;19.99;53.70;100152.63;105628;1297;23225;-66
2022/11/23 09:36:01;;;;;;;;;5.50;4.50;;;;;20.01;53.70;100157.49;105664;1291;19756;-68
2022/11/23 09:38:28;;;;;;;;;4.00;4.00;;;;;20.02;53.55;100149.77;105688;1292;19384;-67
2022/11/23 09:40:56;;;;;;;;;7.00;6.00;;;;;20.03;53.60;100152.92;105658;1278;21821;-67
2022/11/23 09:43:23;;;;;;;;;7.00;5.00;;;;;20.03;53.31;100153.59;105642;1295;18985;-69
2022/11/23 09:45:51;;;;;;;;;5.00;5.00;;;;;20.05;53.42;100156.55;105634;1279;20779;-66
2022/11/23 09:48:18;;;;;;;;;5.00;4.50;;;;;20.06;53.19;100155.65;105575;1281;21734;-66
2022/11/23 09:50:46;;;;;;;;;10.00;7.00;;;;;20.07;53.46;100154.31;105616;1279;19902;-65
2022/11/23 09:53:14;;;;;;;;;5.00;4.00;;;;;20.08;53.46;100152.20;105596;1274;20812;-66
2022/11/23 09:55:41;;;;;;;;;7.00;7.00;;;;;20.11;53.36;100147.39;105517;1275;23636;-66
2022/11/23 09:58:09;;;;;;;;;8.00;7.00;;;;;20.11;53.37;100146.83;105559;1272;19342;-66
2022/11/23 10:00:36;;;;;;;;;7.00;5.00;;;;;20.10;53.04;100142.44;105558;1281;21675;-65
2022/11/23 10:03:03;;;;;;;;;7.00;5.00;;;;;20.11;53.06;100142.00;105575;1281;21684;-69
2022/11/23 10:05:31;;;;;;;;;5.00;5.00;;;;;20.10;53.27;100140.50;105586;1301;19604;-67
2022/11/23 10:07:59;;;;;;;;;5.00;4.00;;;;;20.09;53.25;100137.52;105588;1271;21018;-67
2022/11/23 10:10:26;;;;;;;;;5.00;5.00;;;;;20.10;53.29;100137.95;105584;1279;20232;-66
2022/11/23 10:12:54;;;;;;;;;7.00;5.00;;;;;20.09;53.02;100133.80;105571;1279;19174;-66
2022/11/23 10:15:21;;;;;;;;;4.00;4.00;;;;;20.10;53.21;100133.05;105595;1281;19869;-66
2022/11/23 10:17:49;;;;;;;;;5.00;5.00;;;;;20.09;53.21;100125.37;105596;1279;21687;-68
2022/11/23 10:20:17;;;;;;;;;5.00;4.00;;;;;20.10;52.80;100122.71;105558;1272;19352;-66
2022/11/23 10:22:44;;;;;;;;;4.00;4.00;;;;;20.08;53.13;100124.98;105526;1275;23131;-65
2022/11/23 10:25:12;;;;;;;;;4.00;4.00;;;;;20.05;53.26;100121.28;105553;1302;21689;-65
2022/11/23 10:27:39;;;;;;;;;5.00;5.00;;;;;20.08;53.37;100121.27;105579;1279;22822;-65
2022/11/23 10:30:07;;;;;;;;;8.00;8.00;;;;;20.12;53.09;100121.41;105595;1297;19607;-66
2022/11/23 10:32:34;;;;;;;;;4.00;4.00;;;;;20.14;53.27;100123.69;105625;1297;20231;-68
2022/11/23 10:35:02;;;;;;;;;4.00;4.00;;;;;20.12;53.15;100126.82;105622;1284;19214;-68
2022/11/23 10:37:29;;;;;;;;;5.00;4.00;;;;;20.13;53.27;100125.23;105620;1288;20507;-67
2022/11/23 10:39:57;;;;;;;;;7.00;5.00;;;;;20.13;53.35;100120.55;105633;1279;20270;-67
2022/11/23 10:42:24;;;;;;;;;7.00;5.00;;;;;20.13;53.46;100119.09;105591;1279;19223;-67
2022/11/23 10:44:52;;;;;;;;;5.00;5.00;;;;;20.10;53.60;100115.55;105664;1296;19391;-66
2022/11/23 10:47:19;;;;;;;;;4.00;4.00;;;;;20.10;53.45;100116.53;105593;1275;21577;-66
2022/11/23 10:49:47;;;;;;;;;4.00;4.00;;;;;20.09;53.79;100115.17;105595;1282;20550;-67
2022/11/23 10:52:14;;;;;;;;;4.00;4.00;;;;;20.07;53.49;100110.46;105533;1279;19343;-67
2022/11/23 10:54:42;;;;;;;;;2.00;2.00;;;;;20.08;53.40;100108.63;105504;1293;20174;-68
2022/11/23 10:57:09;;;;;;;;;4.00;4.00;;;;;20.08;53.56;100109.13;105567;1271;19101;-68
2022/11/23 10:59:37;;;;;;;;;4.00;4.00;;;;;20.08;53.38;100107.29;105579;1271;23505;-67
2022/11/23 11:02:04;;;;;;;;;10.00;5.00;;;;;20.08;53.25;100106.37;105468;1279;23568;-67
2022/11/23 11:04:32;;;;;;;;;4.50;4.50;;;;;20.08;53.08;100102.94;105547;1287;19935;-67
2022/11/23 11:06:59;;;;;;;;;5.00;4.00;;;;;20.08;53.23;100097.95;105571;1279;19489;-67
2022/11/23 11:09:27;;;;;;;;;5.00;5.00;;;;;20.07;53.11;100097.98;105558;1279;21578;-67
2022/11/23 11:11:54;;;;;;;;;4.00;4.00;;;;;20.07;52.91;100100.46;105526;1279;21338;-67
2022/11/23 11:14:22;;;;;;;;;5.00;4.50;;;;;20.07;53.20;100097.02;105618;1279;19625;-69
2022/11/23 11:16:50;;;;;;;;;4.50;4.50;;;;;20.08;52.97;100096.75;105548;1272;20404;-67
2022/11/23 11:19:17;;;;;;;;;4.50;4.00;;;;;20.09;53.36;100097.55;105598;1288;19832;-66